Flight Track Log - Related Links

Times and Time Zones

All times are in EDT time to prevent confusion due to time zone crossing. See the N3H flight status page for this flight to view local times or setup timezone preferences in your user account.

Time Position Orientation Groundspeed Altitude Reporting Facility
EDT Latitude Longitude Course Direction KTS MPH feet Rate Location/Type
Sun 04:10:17 PM 54.0667 -54.0667 202° Southwest 430 495 43,000  Level Moncton Center
Sun 04:11:03 PM 54.0500 -54.2167 259° West 430 495 43,000  Level Gander Center
Sun 04:12:03 PM 53.9833 -54.4167 241° Southwest 440 506 43,000  Level Gander Center
Sun 04:13:03 PM 53.9500 -54.6000 253° West 440 506 43,000  Level Gander Center
Sun 04:14:03 PM 53.8833 -54.7833 238° Southwest 440 506 43,000  Level Gander Center
Sun 04:15:00 PM 49.8054 -50.0311 202° Southwest  Level Estimated
Sun 04:15:03 PM 53.8500 -54.9833 254° West 440 506 43,000  Level Gander Center
Sun 04:16:03 PM 53.8000 -55.1667 245° Southwest 430 495 43,000  Level Gander Center
Sun 04:17:03 PM 53.7333 -55.3500 238° Southwest 430 495 43,000  Level Gander Center
Sun 04:18:03 PM 53.6833 -55.5167 243° Southwest 430 495 43,000  Level Gander Center
Sun 04:19:03 PM 53.6167 -55.7000 239° Southwest 430 495 43,000  Level Gander Center
Sun 04:20:03 PM 53.5667 -55.8833 245° Southwest 430 495 43,000  Level Gander Center
Sun 04:21:03 PM 53.5000 -56.0500 236° Southwest 430 495 43,000  Level Gander Center
Sun 04:22:03 PM 53.4333 -56.2333 239° Southwest 430 495 43,000  Level Gander Center
Sun 04:23:03 PM 53.4000 -56.4000 252° West 420 483 43,000  Level Gander Center
Sun 04:24:03 PM 53.3333 -56.5833 239° Southwest 430 495 43,000  Level Gander Center
Sun 04:25:03 PM 53.2833 -56.7500 243° Southwest 430 495 43,000  Level Gander Center
Sun 04:26:03 PM 53.2167 -56.9167 236° Southwest 430 495 43,000  Level Gander Center
Sun 04:27:03 PM 53.1500 -57.1000 239° Southwest 430 495 43,000  Level Gander Center
Sun 04:28:03 PM 53.1000 -57.2667 244° Southwest 430 495 43,000  Level Gander Center
Sun 04:29:03 PM 53.0333 -57.4500 239° Southwest 430 495 43,000  Level Gander Center
Sun 04:30:03 PM 52.9833 -57.6167 244° Southwest 430 495 43,000  Level Gander Center
Sun 04:31:03 PM 52.9333 -57.7833 244° Southwest 430 495 43,000  Level Gander Center
Sun 04:32:03 PM 52.8667 -57.9500 237° Southwest 430 495 43,000  Level Gander Center
Sun 04:33:03 PM 52.8000 -58.1333 239° Southwest 430 495 43,000  Level Gander Center
Sun 04:34:03 PM 52.7333 -58.3000 237° Southwest 430 495 43,000  Level Gander Center
Sun 04:35:03 PM 52.6833 -58.4667 244° Southwest 430 495 43,000  Level Gander Center
Sun 04:36:03 PM 52.6167 -58.6333 237° Southwest 430 495 43,000  Level Gander Center
Sun 04:37:03 PM 52.5667 -58.8000 244° Southwest 420 483 43,000  Level Gander Center
Sun 04:38:03 PM 52.5000 -58.9667 237° Southwest 430 495 43,000  Level Gander Center
Sun 04:39:03 PM 52.4333 -59.1500 239° Southwest 430 495 43,000  Level Gander Center
Sun 04:40:03 PM 52.3833 -59.3333 246° West 430 495 43,000  Level Gander Center
Sun 04:41:03 PM 52.3167 -59.4833 234° Southwest 430 495 43,000  Level Gander Center
Sun 04:42:03 PM 52.2500 -59.6500 237° Southwest 430 495 43,000  Level Gander Center
Sun 04:43:03 PM 52.1833 -59.8333 239° Southwest 430 495 43,000  Level Gander Center
Sun 04:44:03 PM 52.1333 -59.9667 239° Southwest 430 495 43,000  Level Gander Center
Sun 04:45:03 PM 52.0667 -60.1667 242° Southwest 430 495 43,000  Level Gander Center
Sun 04:46:03 PM 52.0000 -60.3333 237° Southwest 430 495 43,000  Level Gander Center
Sun 04:47:17 PM 51.9167 -60.5500 238° Southwest 430 495 43,000  Level Moncton Center
Sun 04:48:03 PM 51.8667 -60.6667 235° Southwest 430 495 43,000  Level Gander Center
Sun 04:49:03 PM 51.8000 -60.8167 234° Southwest 430 495 43,000  Level Gander Center
Sun 04:50:03 PM 51.7333 -60.9833 237° Southwest 430 495 43,000  Level Gander Center
Sun 04:51:17 PM 51.6667 -61.1833 242° Southwest 430 495 43,000  Level Moncton Center
Sun 04:52:03 PM 51.6167 -61.3167 239° Southwest 430 495 43,000  Level Gander Center
Sun 04:53:03 PM 51.5500 -61.4667 234° Southwest 430 495 43,000  Level Gander Center
Sun 04:54:03 PM 51.4833 -61.6333 237° Southwest 430 495 43,000  Level Gander Center
Sun 04:55:03 PM 51.4167 -61.7833 235° Southwest 430 495 43,000  Level Gander Center
Sun 04:56:03 PM 51.3500 -61.9500 237° Southwest 430 495 43,000  Level Gander Center
Sun 04:57:03 PM 51.3000 -62.1167 244° Southwest 430 495 43,000  Level Gander Center
Sun 04:58:03 PM 51.2333 -62.2667 235° Southwest 420 483 43,000  Level Gander Center
Sun 04:59:03 PM 51.1667 -62.4333 238° Southwest 420 483 43,000  Level Gander Center
Sun 05:00:03 PM 51.1000 -62.5833 235° Southwest 420 483 43,000  Level Gander Center
Sun 05:01:03 PM 51.0500 -62.7167 239° Southwest 420 483 43,000  Level Gander Center
Sun 05:02:03 PM 50.9833 -62.9000 240° Southwest 420 483 43,000  Level Gander Center
Sun 05:03:03 PM 50.9167 -63.0333 232° Southwest 420 483 43,000  Level Gander Center
Sun 05:04:03 PM 50.8333 -63.1833 229° Southwest 420 483 43,000  Level Gander Center
Sun 05:05:03 PM 50.7667 -63.3500 238° Southwest 420 483 43,000  Level Gander Center
Sun 05:06:03 PM 50.7000 -63.5000 235° Southwest 420 483 43,000  Level Gander Center
Sun 05:07:03 PM 50.6500 -63.6500 242° Southwest 410 472 43,000  Level Gander Center
Sun 05:08:03 PM 50.5833 -63.7833 232° Southwest 410 472 43,000  Level Gander Center
Sun 05:09:03 PM 50.5000 -63.9333 229° Southwest 420 483 43,000  Level Gander Center
Sun 05:10:03 PM 50.4500 -64.1000 245° Southwest 420 483 43,000  Level Gander Center
Sun 05:11:03 PM 50.3833 -64.2500 235° Southwest 420 483 43,000  Level Gander Center
Sun 05:12:03 PM 50.3167 -64.4000 235° Southwest 420 483 43,000  Level Gander Center
Sun 05:13:03 PM 50.2500 -64.5500 235° Southwest 420 483 43,000  Level Gander Center
Sun 05:14:03 PM 50.1833 -64.7000 235° Southwest 420 483 43,000  Level Gander Center
Sun 05:15:03 PM 50.1167 -64.8333 232° Southwest 420 483 43,000  Level Gander Center
Sun 05:16:03 PM 50.0500 -65.0000 238° Southwest 410 472 43,000  Level Gander Center
Sun 05:17:03 PM 49.9667 -65.1333 226° Southwest 410 472 43,000  Level Gander Center
Sun 05:18:03 PM 49.9167 -65.2833 243° Southwest 420 483 43,000  Level Gander Center
Sun 05:19:03 PM 49.8500 -65.4333 235° Southwest 420 483 43,000  Level Gander Center
Sun 05:20:03 PM 49.7667 -65.5833 229° Southwest 420 483 43,000  Level Gander Center
Sun 05:21:03 PM 49.7000 -65.7333 236° Southwest 420 483 43,000  Level Gander Center
Sun 05:22:03 PM 49.6500 -65.8500 237° Southwest 420 483 43,000  Level Gander Center
Sun 05:23:03 PM 49.5667 -66.0333 235° Southwest 420 483 43,000  Level Gander Center
Sun 05:24:03 PM 49.5000 -66.1500 229° Southwest 410 472 43,000  Level Gander Center
Sun 05:25:03 PM 49.4167 -66.3000 230° Southwest 410 472 43,000  Level Gander Center
Sun 05:26:03 PM 49.3667 -66.4500 243° Southwest 410 472 43,000 -50 Level Gander Center
Sun 05:27:03 PM 49.3000 -66.5667 229° Southwest 410 472 42,900  Descending Gander Center
Sun 05:28:03 PM 49.2167 -66.7167 230° Southwest 410 472 43,000  Climbing Gander Center
Sun 05:29:03 PM 49.1667 -66.8500 240° Southwest 410 472 42,900  Descending Gander Center
Sun 05:30:03 PM 49.0833 -67.0000 230° Southwest 410 472 43,000 50 Climbing Gander Center
Sun 05:31:03 PM 49.0167 -67.1167 229° Southwest 410 472 43,000  Level Gander Center
Sun 05:32:03 PM 48.9667 -67.2667 243° Southwest 410 472 43,000 -50 Level Gander Center
Sun 05:33:03 PM 48.8833 -67.4167 230° Southwest 410 472 42,900  Descending Gander Center
Sun 05:34:03 PM 48.8167 -67.5500 233° Southwest 410 472 43,000 50 Climbing Gander Center
Sun 05:35:03 PM 48.7500 -67.7000 236° Southwest 410 472 43,000  Level Gander Center
Sun 05:36:03 PM 48.6833 -67.8167 229° Southwest 410 472 43,000  Level Gander Center
Sun 05:37:03 PM 48.6000 -67.9667 230° Southwest 410 472 43,000  Level Gander Center
Sun 05:38:03 PM 48.5500 -68.1000 241° Southwest 410 472 43,000  Level Gander Center
Sun 05:39:03 PM 48.4667 -68.2500 230° Southwest 410 472 43,000  Level Gander Center
Sun 05:40:03 PM 48.4000 -68.3667 229° Southwest 420 483 43,000  Level Gander Center
Sun 05:41:03 PM 48.3333 -68.5000 233° Southwest 410 472 43,000 -50 Level Gander Center
Sun 05:42:03 PM 48.2500 -68.6500 230° Southwest 420 483 42,900  Descending Gander Center
Sun 05:43:03 PM 48.1833 -68.7833 233° Southwest 420 483 43,000  Climbing Gander Center
Sun 05:44:03 PM 48.1000 -68.9167 227° Southwest 420 483 42,900  Descending Gander Center
Sun 05:45:03 PM 48.0500 -69.0667 244° Southwest 420 483 43,000  Climbing Gander Center
Sun 05:46:03 PM 47.9667 -69.2000 227° Southwest 420 483 42,900  Descending Gander Center
Sun 05:47:03 PM 47.9000 -69.3167 230° Southwest 420 483 43,000  Climbing Gander Center
Sun 05:48:03 PM 47.8167 -69.4500 227° Southwest 420 483 42,900 -50 Descending Gander Center
Sun 05:49:03 PM 47.7333 -69.5833 227° Southwest 420 483 42,900 50 Level Gander Center
Sun 05:50:03 PM 47.6500 -69.7000 223° Southwest 420 483 43,000 50 Climbing Gander Center
Sun 05:51:03 PM 47.5500 -69.7833 209° Southwest 420 483 43,000 -50 Level Gander Center
Sun 05:52:03 PM 47.4667 -69.8833 219° Southwest 420 483 42,900  Descending Gander Center
Sun 05:53:03 PM 47.3500 -69.9667 206° Southwest 420 483 43,000 50 Climbing Gander Center
Sun 05:54:03 PM 47.2667 -70.0833 224° Southwest 420 483 43,000  Level Gander Center
Sun 05:55:03 PM 47.1667 -70.1667 210° Southwest 420 483 43,000  Level Gander Center
Sun 05:56:03 PM 47.0667 -70.2500 210° Southwest 410 472 43,000  Level Gander Center
Sun 05:57:03 PM 46.9667 -70.3500 214° Southwest 410 472 43,000  Level Gander Center
Sun 05:58:03 PM 46.8833 -70.4500 219° Southwest 410 472 43,000 -64 Level Gander Center
Sun 05:58:37 PM 46.8456 -70.4789 208° Southwest 416 479 42,900  Descending Boston Center
Sun 05:59:17 PM 46.7667 -70.5500 212° Southwest 410 472 43,000 60 Climbing Moncton Center
Sun 06:00:17 PM 46.6667 -70.6500 214° Southwest 410 472 43,000  Level Moncton Center
Sun 06:01:17 PM 46.5667 -70.7333 210° Southwest 410 472 43,000  Level Moncton Center
Sun 06:02:17 PM 46.4833 -70.8167 215° Southwest 420 483 43,000  Level Moncton Center
Sun 06:03:17 PM 46.3667 -70.9333 215° Southwest 420 483 43,000  Level Moncton Center
Sun 06:04:17 PM 46.2667 -71.0167 210° Southwest 420 483 43,000  Level Moncton Center
Sun 06:05:17 PM 46.1833 -71.1000 215° Southwest 410 472 43,000  Level Moncton Center
Sun 06:06:17 PM 46.0833 -71.1833 210° Southwest 410 472 43,000  Level Moncton Center
Sun 06:07:17 PM 45.9833 -71.2833 215° Southwest 410 472 43,000  Level Moncton Center
Sun 06:08:17 PM 45.9000 -71.3667 215° Southwest 420 483 43,000  Level Moncton Center
Sun 06:09:17 PM 45.7833 -71.4500 206° Southwest 420 483 43,000  Level Moncton Center
Sun 06:10:17 PM 45.7000 -71.5333 215° Southwest 420 483 43,000  Level Moncton Center
Sun 06:11:17 PM 45.6000 -71.6167 210° Southwest 420 483 43,000  Level Moncton Center
Sun 06:11:58 PM 45.5464 -71.6608 210° Southwest 424 488 43,000  Level Boston Center
Sun 06:12:31 PM 45.4667 -71.6833 191° South 420 483 43,000  Level Montreal Center
Sun 06:13:31 PM 45.3833 -71.7667 215° Southwest 410 472 43,000  Level Montreal Center
Sun 06:14:31 PM 45.2667 -71.8333 202° Southwest 400 460 43,000  Level Montreal Center
Sun 06:15:31 PM 45.1667 -71.9000 205° Southwest 410 472 43,000  Level Montreal Center
Sun 06:16:31 PM 45.0500 -71.9667 202° Southwest 410 472 43,000  Level Montreal Center
Sun 06:17:31 PM 44.9333 -71.9167 163° South 440 506 43,000  Level Montreal Center
Sun 06:18:31 PM 44.8167 -71.9833 202° Southwest 420 483 43,000  Level Montreal Center
Sun 06:19:07 PM 44.7672 -72.0131 203° Southwest 416 479 43,000  Level Boston Center
Sun 06:20:11 PM 44.6553 -72.0669 199° South 422 486 43,000  Level Boston Center
Sun 06:21:11 PM 44.5444 -72.1167 198° South 418 481 43,000  Level Boston Center
Sun 06:22:12 PM 44.4364 -72.1644 198° South 409 471 43,000  Level Boston Center
Sun 06:23:16 PM 44.3281 -72.2131 198° South 405 466 43,000  Level Boston Center
Sun 06:24:16 PM 44.2181 -72.2611 197° South 411 473 43,000  Level Boston Center
Sun 06:25:17 PM 44.1086 -72.3122 199° South 412 474 43,000  Level Boston Center
Sun 06:26:20 PM 43.9792 -72.3686 197° South 405 466 43,000  Level Boston Center
Sun 06:27:21 PM 43.8803 -72.4142 198° South 414 476 43,000  Level Boston Center
Sun 06:28:24 PM 43.7703 -72.4625 198° South 417 480 43,000  Level Boston Center
Sun 06:29:25 PM 43.6622 -72.5100 198° South 409 471 43,000 492 Level Boston Center
Sun 06:30:26 PM 43.5322 -72.5667 198° South 409 471 44,000 744 Climbing Boston Center
Sun 06:31:26 PM 43.4247 -72.6139 198° South 406 467 44,500 484 Climbing Boston Center
Sun 06:32:30 PM 43.3164 -72.6606 197° South 408 470 45,000 242 Climbing Boston Center
Sun 06:33:30 PM 43.2108 -72.7058 197° South 403 464 45,000  Level Boston Center
Sun 06:34:34 PM 43.0931 -72.7558 197° South 398 458 45,000  Level Boston Center
Sun 06:35:35 PM 42.9864 -72.8017 197° South 400 460 45,000  Level Boston Center
Sun 06:36:36 PM 42.8822 -72.8528 200° South 399 459 45,000  Level Boston Center
Sun 06:37:37 PM 42.7825 -72.9219 207° Southwest 383 441 45,000 -50 Level Boston Center
Sun 06:38:37 PM 42.6844 -72.9894 207° Southwest 391 450 44,900  Descending Boston Center
Sun 06:39:41 PM 42.5853 -73.0561 206° Southwest 395 455 45,000 48 Climbing Boston Center
Sun 06:40:42 PM 42.4897 -73.1192 206° Southwest 393 452 45,000  Level Boston Center
Sun 06:41:43 PM 42.3936 -73.1825 206° Southwest 392 451 45,000  Level Boston Center
Sun 06:42:46 PM 42.2975 -73.2458 206° Southwest 390 449 45,000  Level Boston Center
Sun 06:43:47 PM 42.1828 -73.3208 206° Southwest 385 443 45,000  Level Boston Center
Sun 06:44:48 PM 42.0822 -73.3872 206° Southwest 385 443 45,000  Level Boston Center
Sun 06:45:51 PM 41.9892 -73.4472 206° Southwest 390 449 45,000  Level Boston Center
Sun 06:46:52 PM 41.8919 -73.5097 206° Southwest 389 448 45,000  Level Boston Center
Sun 06:47:53 PM 41.7953 -73.5733 206° Southwest 389 448 45,000  Level Boston Center
Sun 06:48:54 PM 41.6986 -73.6342 205° Southwest 386 444 45,000  Level Boston Center
Sun 06:49:57 PM 41.6017 -73.6969 206° Southwest 386 444 45,000 -57 Level Boston Center
Sun 06:50:40 PM 41.5133 -73.7550 206° Southwest 383 441 44,900 -58 Descending New York Center
Sun 06:51:40 PM 41.4286 -73.8092 206° Southwest 383 441 44,900  Level New York Center
Sun 06:52:40 PM 41.3292 -73.8683 204° Southwest 388 447 44,900  Level New York Center
Sun 06:53:40 PM 41.2317 -73.9328 206° Southwest 388 447 44,900  Level New York Center
Sun 06:54:40 PM 41.1342 -73.9942 205° Southwest 393 452 44,900  Level New York Center
Sun 06:55:40 PM 41.0367 -74.0583 206° Southwest 388 447 44,900  Level New York Center
Sun 06:56:40 PM 40.9414 -74.1169 205° Southwest 388 447 44,900  Level New York Center
Sun 06:57:40 PM 40.8458 -74.1753 205° Southwest 388 447 44,900  Level New York Center
Sun 06:58:40 PM 40.7336 -74.2381 203° Southwest 388 447 44,900  Level New York Center
Sun 06:59:40 PM 40.6403 -74.2989 206° Southwest 388 447 44,900  Level New York Center
Sun 07:00:40 PM 40.5403 -74.3594 205° Southwest 388 447 44,900 50 Level New York Center
Sun 07:01:40 PM 40.4469 -74.4200 206° Southwest 388 447 45,000  Climbing New York Center
Sun 07:03:16 PM 40.3144 -74.5000 205° Southwest 378 435 44,900 -38 Descending Boston Center
Sun 07:04:18 PM 40.1994 -74.5694 205° Southwest 379 436 44,900 49 Level Boston Center
Sun 07:05:18 PM 40.1019 -74.6283 205° Southwest 383 441 45,000 59 Climbing Boston Center
Sun 07:05:59 PM 40.0453 -74.6619 204° Southwest 382 440 45,000 -59 Level Washington Center
Sun 07:07:00 PM 39.9519 -74.7200 205° Southwest 382 440 44,900  Descending Washington Center
Sun 07:07:58 PM 39.8525 -74.7781 204° Southwest 382 440 45,000 51 Climbing Washington Center
Sun 07:08:58 PM 39.7486 -74.8414 205° Southwest 382 440 45,000  Level Washington Center
Sun 07:09:58 PM 39.6553 -74.9017 206° Southwest 382 440 45,000 -248 Level Washington Center
Sun 07:10:59 PM 39.5536 -74.9592 204° Southwest 387 445 44,500 -738 Descending Washington Center
Sun 07:12:00 PM 39.4600 -75.0192 206° Southwest 387 445 43,500 -744 Descending Washington Center
Sun 07:13:00 PM 39.3644 -75.0736 204° Southwest 381 438 43,000 -200 Descending Washington Center
Sun 07:14:00 PM 39.2708 -75.1331 206° Southwest 376 433 43,100  Climbing Washington Center
Sun 07:14:58 PM 39.1772 -75.1872 204° Southwest 376 433 43,000 -50 Descending Washington Center
Sun 07:15:59 PM 39.0817 -75.2439 205° Southwest 381 438 43,000  Level Washington Center
Sun 07:16:59 PM 38.9900 -75.2978 205° Southwest 381 438 43,000  Level Washington Center
Sun 07:18:00 PM 38.8983 -75.3517 205° Southwest 381 438 43,000  Level Washington Center
Sun 07:18:58 PM 38.8047 -75.4053 204° Southwest 375 432 43,000  Level Washington Center
Sun 07:19:59 PM 38.7131 -75.4614 206° Southwest 375 432 43,000  Level Washington Center
Sun 07:21:00 PM 38.6194 -75.5172 205° Southwest 375 432 43,000  Level Washington Center
Sun 07:21:59 PM 38.5256 -75.5678 203° Southwest 375 432 43,000  Level Washington Center
Sun 07:22:59 PM 38.4339 -75.6261 206° Southwest 375 432 43,000  Level Washington Center
Sun 07:23:58 PM 38.3400 -75.6792 204° Southwest 375 432 43,000  Level Washington Center
Sun 07:24:59 PM 38.2461 -75.7292 203° Southwest 380 437 43,000  Level Washington Center
Sun 07:26:01 PM 38.1522 -75.7819 204° Southwest 380 437 43,000  Level Washington Center
Sun 07:26:58 PM 38.0667 -75.8317 205° Southwest 380 437 43,000  Level Washington Center
Sun 07:27:58 PM 37.9747 -75.8867 205° Southwest 380 437 43,000  Level Washington Center
Sun 07:28:59 PM 37.8786 -75.9392 203° Southwest 380 437 43,000  Level Washington Center
Sun 07:29:58 PM 37.7847 -75.9939 205° Southwest 380 437 43,000  Level Washington Center
Sun 07:31:00 PM 37.6947 -76.0536 208° Southwest 380 437 43,000  Level Washington Center
Sun 07:31:59 PM 37.6006 -76.1083 205° Southwest 380 437 43,000  Level Washington Center
Sun 07:32:59 PM 37.4961 -76.1703 205° Southwest 380 437 43,000  Level Washington Center
Sun 07:33:59 PM 37.4061 -76.2061 198° South 380 437 43,000  Level Washington Center
Sun 07:34:58 PM 37.3100 -76.2631 205° Southwest 380 437 43,000  Level Washington Center
Sun 07:35:58 PM 37.2158 -76.3142 203° Southwest 380 437 43,000  Level Washington Center
Sun 07:36:59 PM 37.1194 -76.3681 204° Southwest 380 437 43,000 -443 Level Washington Center
Sun 07:38:00 PM 37.0253 -76.4244 206° Southwest 380 437 42,100 -934 Descending Washington Center
Sun 07:39:01 PM 36.9267 -76.4778 203° Southwest 380 437 41,100 -1,210 Descending Washington Center
Sun 07:39:59 PM 36.8283 -76.5339 205° Southwest 380 437 39,700 -1,525 Descending Washington Center
Sun 07:40:59 PM 36.7256 -76.5869 202° Southwest 386 444 38,100 -1,613 Descending Washington Center
Sun 07:41:58 PM 36.6228 -76.6503 206° Southwest 386 444 36,500 -1,091 Descending Washington Center
Sun 07:43:00 PM 36.5244 -76.7033 203° Southwest 379 436 35,900 -295 Descending Washington Center
Sun 07:44:00 PM 36.4278 -76.7561 204° Southwest 379 436 35,900  Level Washington Center
Sun 07:44:58 PM 36.3356 -76.8064 204° Southwest 379 436 35,900 -250 Level Washington Center
Sun 07:46:00 PM 36.2475 -76.8539 204° Southwest 366 421 35,400 -1,220 Descending Washington Center
Sun 07:47:01 PM 36.1553 -76.9014 203° Southwest 361 415 33,400 -1,765 Descending Washington Center
Sun 07:47:59 PM 36.0647 -76.9539 205° Southwest 361 415 31,900 -756 Descending Washington Center
Sun 07:49:00 PM 35.9703 -77.0061 204° Southwest 361 415 31,900  Level Washington Center
Sun 07:50:00 PM 35.8781 -77.0506 201° Southwest 361 415 31,900  Level Washington Center
Sun 07:50:58 PM 35.7836 -77.1028 204° Southwest 361 415 31,900  Level Washington Center
Sun 07:51:58 PM 35.7119 -77.1422 204° Southwest 351 404 31,900 -744 Level Washington Center
Sun 07:52:59 PM 35.6239 -77.1892 203° Southwest 340 391 30,400 -1,512 Descending Washington Center
Sun 07:54:01 PM 35.5439 -77.2333 204° Southwest 334 384 28,800 -1,714 Descending Washington Center
Sun 07:54:58 PM 35.4683 -77.2753 204° Southwest 319 367 27,000 -2,034 Descending Washington Center
Sun 07:55:59 PM 35.3906 -77.3144 202° Southwest 312 359 24,800 -2,557 Descending Washington Center
Sun 07:57:00 PM 35.3125 -77.3561 204° Southwest 307 353 21,800 -3,025 Descending Washington Center
Sun 07:58:00 PM 35.2306 -77.4000 204° Southwest 312 359 18,700 -2,975 Descending Washington Center
Sun 07:59:01 PM 35.1486 -77.4414 202° Southwest 319 367 15,800 -3,000 Descending Washington Center
Sun 07:59:58 PM 35.0622 -77.4875 204° Southwest 325 374 12,800 -2,513 Descending Washington Center
Sun 08:00:58 PM 34.9822 -77.5314 204° Southwest 325 374 10,900 -1,388 Descending Washington Center
Sun 08:01:59 PM 34.8961 -77.5697 200° South 330 380 10,000 -984 Descending Washington Center
Sun 08:03:00 PM 34.8022 -77.5800 185° South 320 368 8,900 -1,311 Descending Washington Center
Sun 08:03:58 PM 34.7244 -77.6061 195° South 309 356 7,400 -1,613 Descending Washington Center
Sun 08:04:59 PM 34.6553 -77.6294 196° South 282 325 5,700 -1,672 Descending Washington Center
Sun 08:06:00 PM 34.5839 -77.6506 194° South 271 312 4,000 -1,664 Descending Washington Center
Sun 08:06:58 PM 34.5147 -77.6739 196° South 264 304 2,400 -1,220 Descending Washington Center
Sun 08:07:58 PM 34.4497 -77.6925 193° South 259 298 1,600 -446 Descending Washington Center
Sun 08:08:59 PM 34.3947 -77.7264 207° Southwest 240 276 1,500 -50 Descending Washington Center
Sun 08:09:59 PM 34.3628 -77.7733 231° Southwest 203 234 1,500  Level Washington Center

Login

Don't have an account? Register now (free) for customized features, flight alerts, and more!